Gibson, Mississippi
Current Conditions -  °F | °C
As of 6:15 AM on Saturday 01 Nov 2014 (Local Time) from KM40 Reporting Station
Clear Clear  
Wind Chill: 30°   Ceiling: Unl
Heat Index: 36°   Visibility: 9mi
Dew Point: 23°   Wind: 7mph
Humidity: 60%   Direction: 330°NNW
Pressure: 30.31"   Gusts: NA
Location:  33.8251°N, 88.6185°W
Report Text: KM40 011115Z AUTO 33006KT 9SM CLR 02/M05 A3031 RMK AO2
Loading
Personal Weather Stations






























Interactive Weather Map New forecast layout! Learn more

10-Day Weather Forecast

Advertisements
Track Severe Weather on mobile